Home > Products > Valid Products > TAF

000
FTUS44 KHUN 271146 CCA
TAFHSV
TAF COR
KHSV 271146Z 2712/2812 VRB03KT P6SM SCT035 SCT250
      TEMPO 2712/2714 6SM BR
     FM271600 04005KT P6SM FEW050
     FM272300 VRB03KT P6SM SKC=



000
FTUS44 KHUN 271146 CCA
TAFMSL
TAF COR
KMSL 271146Z 2712/2812 VRB03KT P6SM SCT035 SCT250
      TEMPO 2712/2714 1SM BR BKN005
     FM271600 04005KT P6SM FEW050
     FM272300 VRB03KT P6SM SKC=



000
FTUS44 KHUN 271146 CCA
TAFHSV
TAF COR
KHSV 271146Z 2712/2812 VRB03KT P6SM SCT035 SCT250
      TEMPO 2712/2714 6SM BR
     FM271600 04005KT P6SM FEW050
     FM272300 VRB03KT P6SM SKC=



000
FTUS44 KHUN 271146 CCA
TAFMSL
TAF COR
KMSL 271146Z 2712/2812 VRB03KT P6SM SCT035 SCT250
      TEMPO 2712/2714 1SM BR BKN005
     FM271600 04005KT P6SM FEW050
     FM272300 VRB03KT P6SM SKC=



000
FTUS44 KHUN 271140
TAFHSV
TAF
KHSV 271140Z 2712/2812 VRB03KT P6SM SCT035 SCT250
      TEMPO 2712/2714 6SM BR
     FM271600 04005KT P6SM FEW050=



000
FTUS44 KHUN 271140
TAFMSL
TAF
KMSL 271140Z 2712/2812 00000KT 3SM BR SKC
      TEMPO 2712/2713 1/2SM FG VV001
     FM271500 VRB03KT P6SM SCT050=



000
FTUS44 KHUN 271140
TAFHSV
TAF
KHSV 271140Z 2712/2812 VRB03KT P6SM SCT035 SCT250
      TEMPO 2712/2714 6SM BR
     FM271600 04005KT P6SM FEW050=



000
FTUS44 KHUN 271140
TAFMSL
TAF
KMSL 271140Z 2712/2812 00000KT 3SM BR SKC
      TEMPO 2712/2713 1/2SM FG VV001
     FM271500 VRB03KT P6SM SCT050=



000
FTUS44 KHUN 271016 AAA
TAFMSL
TAF AMD
KMSL 271016Z 2710/2806 00000KT 3SM BR SKC
      TEMPO 2710/2713 1/2SM FG VV001
     FM271500 VRB03KT P6SM SCT050=



000
FTUS44 KHUN 271016 AAA
TAFMSL
TAF AMD
KMSL 271016Z 2710/2806 00000KT 3SM BR SKC
      TEMPO 2710/2713 1/2SM FG VV001
     FM271500 VRB03KT P6SM SCT050=



000
FTUS44 KHUN 271016 AAA
TAFMSL
TAF AMD
KMSL 271016Z 2710/2806 00000KT 3SM BR SKC
      TEMPO 2710/2713 1/2SM FG VV001
     FM271500 VRB03KT P6SM SCT050=



000
FTUS44 KHUN 271016 AAA
TAFMSL
TAF AMD
KMSL 271016Z 2710/2806 00000KT 3SM BR SKC
      TEMPO 2710/2713 1/2SM FG VV001
     FM271500 VRB03KT P6SM SCT050=



000
FTUS44 KHUN 270540
TAFMSL
TAF
KMSL 270540Z 2706/2806 00000KT P6SM SKC
      TEMPO 2708/2712 3SM BR
     FM271500 VRB03KT P6SM SCT050=



000
FTUS44 KHUN 270540
TAFHSV
TAF
KHSV 270540Z 2706/2806 VRB02KT P6SM SKC
      TEMPO 2708/2712 5SM BR
     FM271500 07006KT P6SM SCT050
     FM280100 VRB03KT P6SM SCT250=



000
FTUS44 KHUN 270540
TAFMSL
TAF
KMSL 270540Z 2706/2806 00000KT P6SM SKC
      TEMPO 2708/2712 3SM BR
     FM271500 VRB03KT P6SM SCT050=



000
FTUS44 KHUN 270540
TAFHSV
TAF
KHSV 270540Z 2706/2806 VRB02KT P6SM SKC
      TEMPO 2708/2712 5SM BR
     FM271500 07006KT P6SM SCT050
     FM280100 VRB03KT P6SM SCT250=



000
FTUS44 KHUN 262335
TAFMSL
TAF
KMSL 262335Z 2700/2724 VRB03KT P6SM FEW050 SCT250
     FM270300 VRB03KT P6SM FEW250
      TEMPO 2708/2712 4SM BR=



000
FTUS44 KHUN 262335
TAFHSV
TAF
KHSV 262335Z 2700/2724 10005KT P6SM FEW050 SCT250
     FM270100 VRB02KT P6SM FEW250
      TEMPO 2708/2712 5SM BR
     FM271500 09004KT P6SM SCT050=



000
FTUS44 KHUN 262335
TAFHSV
TAF
KHSV 262335Z 2700/2724 10005KT P6SM FEW050 SCT250
     FM270100 VRB02KT P6SM FEW250
      TEMPO 2708/2712 5SM BR
     FM271500 09004KT P6SM SCT050=



000
FTUS44 KHUN 262335
TAFMSL
TAF
KMSL 262335Z 2700/2724 VRB03KT P6SM FEW050 SCT250
     FM270300 VRB03KT P6SM FEW250
      TEMPO 2708/2712 4SM BR=



000
FTUS44 KHUN 261803 AAA
TAFHSV
TAF AMD
KHSV 261803Z 2618/2718 12005KT P6SM SCT050
      TEMPO 2618/2622 BKN050
     FM270100 VRB02KT P6SM SKC
      TEMPO 2708/2712 5SM BR=



000
FTUS44 KHUN 261803 AAA
TAFHSV
TAF AMD
KHSV 261803Z 2618/2718 12005KT P6SM SCT050
      TEMPO 2618/2622 BKN050
     FM270100 VRB02KT P6SM SKC
      TEMPO 2708/2712 5SM BR=



000
FTUS44 KHUN 261802 AAA
TAFMSL
TAF AMD
KMSL 261802Z 2618/2718 11003KT P6SM VCSH BKN050
     FM262200 VRB03KT P6SM FEW050 BKN080
     FM270300 VRB03KT P6SM FEW120
      TEMPO 2708/2712 4SM BR=



000
FTUS44 KHUN 261802 AAA
TAFMSL
TAF AMD
KMSL 261802Z 2618/2718 11003KT P6SM VCSH BKN050
     FM262200 VRB03KT P6SM FEW050 BKN080
     FM270300 VRB03KT P6SM FEW120
      TEMPO 2708/2712 4SM BR=



000
FTUS44 KHUN 261720
TAFHSV
TAF
KHSV 261720Z 2618/2718 10005KT P6SM FEW060 SCT250
     FM270100 VRB02KT P6SM SKC
      TEMPO 2708/2712 5SM BR=



000
FTUS44 KHUN 261720
TAFMSL
TAF
KMSL 261720Z 2618/2718 00000KT P6SM FEW110 BKN250
     FM270300 VRB03KT P6SM FEW120
      TEMPO 2708/2712 4SM BR=



000
FTUS44 KHUN 261720
TAFMSL
TAF
KMSL 261720Z 2618/2718 00000KT P6SM FEW110 BKN250
     FM270300 VRB03KT P6SM FEW120
      TEMPO 2708/2712 4SM BR=



000
FTUS44 KHUN 261720
TAFHSV
TAF
KHSV 261720Z 2618/2718 10005KT P6SM FEW060 SCT250
     FM270100 VRB02KT P6SM SKC
      TEMPO 2708/2712 5SM BR=



000
FTUS44 KHUN 261138
TAFMSL
TAF
KMSL 261138Z 2612/2712 14005KT P6SM SCT050 SCT090 SCT250
     FM261700 07005KT P6SM FEW040 SCT060
     FM270300 VRB03KT P6SM FEW050
      TEMPO 2708/2712 4SM BR=



000
FTUS44 KHUN 261138
TAFHSV
TAF
KHSV 261138Z 2612/2712 14005KT P6SM SCT050 SCT090 SCT250
     FM261700 07005KT P6SM FEW040 SCT060
     FM270300 VRB03KT P6SM FEW050
      TEMPO 2708/2712 4SM BR=



000
FTUS44 KHUN 261138
TAFHSV
TAF
KHSV 261138Z 2612/2712 14005KT P6SM SCT050 SCT090 SCT250
     FM261700 07005KT P6SM FEW040 SCT060
     FM270300 VRB03KT P6SM FEW050
      TEMPO 2708/2712 4SM BR=



000
FTUS44 KHUN 261138
TAFMSL
TAF
KMSL 261138Z 2612/2712 14005KT P6SM SCT050 SCT090 SCT250
     FM261700 07005KT P6SM FEW040 SCT060
     FM270300 VRB03KT P6SM FEW050
      TEMPO 2708/2712 4SM BR=



000
FTUS44 KHUN 260540
TAFHSV
TAF
KHSV 260540Z 2606/2706 VRB03KT P6SM FEW035 SCT070 SCT250
     FM261500 14007KT P6SM SCT040 SCT250
     FM270100 VRB03KT P6SM BKN250=



000
FTUS44 KHUN 260540
TAFMSL
TAF
KMSL 260540Z 2606/2706 VRB03KT P6SM FEW035 SCT070 SCT250
      TEMPO 2610/2613 00000KT 5SM BR
     FM261500 14006KT P6SM SCT040
     FM270100 VRB02KT P6SM BKN250=



000
FTUS44 KHUN 260540
TAFHSV
TAF
KHSV 260540Z 2606/2706 VRB03KT P6SM FEW035 SCT070 SCT250
     FM261500 14007KT P6SM SCT040 SCT250
     FM270100 VRB03KT P6SM BKN250=



000
FTUS44 KHUN 260540
TAFMSL
TAF
KMSL 260540Z 2606/2706 VRB03KT P6SM FEW035 SCT070 SCT250
      TEMPO 2610/2613 00000KT 5SM BR
     FM261500 14006KT P6SM SCT040
     FM270100 VRB02KT P6SM BKN250=



000
FTUS44 KHUN 252330
TAFHSV
TAF
KHSV 252330Z 2600/2624 13005KT P6SM FEW040 BKN250
     FM260200 VRB03KT P6SM SCT250
     FM261500 14007KT P6SM SCT040=



000
FTUS44 KHUN 252330
TAFMSL
TAF
KMSL 252330Z 2600/2624 12004KT P6SM SCT040 BKN060
     FM260300 VRB02KT P6SM SCT250
      TEMPO 2610/2613 00000KT 5SM BR FEW250
     FM261500 14006KT P6SM SCT040=



000
FTUS44 KHUN 252330
TAFMSL
TAF
KMSL 252330Z 2600/2624 12004KT P6SM SCT040 BKN060
     FM260300 VRB02KT P6SM SCT250
      TEMPO 2610/2613 00000KT 5SM BR FEW250
     FM261500 14006KT P6SM SCT040=



000
FTUS44 KHUN 252330
TAFHSV
TAF
KHSV 252330Z 2600/2624 13005KT P6SM FEW040 BKN250
     FM260200 VRB03KT P6SM SCT250
     FM261500 14007KT P6SM SCT040=



000
FTUS44 KHUN 251720
TAFMSL
TAF
KMSL 251720Z 2518/2618 VRB05KT P6SM SCT040 BKN060
     FM260100 VRB02KT P6SM SCT250
     FM261500 14005KT P6SM SCT040=



000
FTUS44 KHUN 251720
TAFHSV
TAF
KHSV 251720Z 2518/2618 11007KT P6SM FEW030 BKN045
     FM260100 VRB03KT P6SM SCT250
     FM261500 14005KT P6SM SCT040=



000
FTUS44 KHUN 251720
TAFHSV
TAF
KHSV 251720Z 2518/2618 11007KT P6SM FEW030 BKN045
     FM260100 VRB03KT P6SM SCT250
     FM261500 14005KT P6SM SCT040=



000
FTUS44 KHUN 251720
TAFMSL
TAF
KMSL 251720Z 2518/2618 VRB05KT P6SM SCT040 BKN060
     FM260100 VRB02KT P6SM SCT250
     FM261500 14005KT P6SM SCT040=



000
FTUS44 KHUN 251120
TAFMSL
TAF
KMSL 251120Z 2512/2612 VRB03KT P6SM SCT050 BKN120
     FM251500 14005KT P6SM SCT040 BKN250
     FM260100 VRB02KT P6SM SCT250=



000
FTUS44 KHUN 251120
TAFHSV
TAF
KHSV 251120Z 2512/2612 VRB04KT P6SM BKN050
     FM251500 12007KT P6SM SCT050 SCT250
     FM260100 VRB03KT P6SM SCT250=



000
FTUS44 KHUN 251120
TAFHSV
TAF
KHSV 251120Z 2512/2612 VRB04KT P6SM BKN050
     FM251500 12007KT P6SM SCT050 SCT250
     FM260100 VRB03KT P6SM SCT250=



000
FTUS44 KHUN 251120
TAFMSL
TAF
KMSL 251120Z 2512/2612 VRB03KT P6SM SCT050 BKN120
     FM251500 14005KT P6SM SCT040 BKN250
     FM260100 VRB02KT P6SM SCT250=



000
FTUS44 KHUN 250520
TAFMSL
TAF
KMSL 250520Z 2506/2606 VRB03KT P6SM BKN250
      TEMPO 2511/2513 5SM BR
     FM251700 14006KT P6SM SCT050 BKN250
     FM260100 11004KT P6SM SCT250=



000
FTUS44 KHUN 250520
TAFHSV
TAF
KHSV 250520Z 2506/2606 10005KT P6SM SCT150 BKN250
     FM251500 15007KT P6SM FEW050 SCT200
     FM260100 10004KT P6SM SCT250=



000
FTUS44 KHUN 250520
TAFMSL
TAF
KMSL 250520Z 2506/2606 VRB03KT P6SM BKN250
      TEMPO 2511/2513 5SM BR
     FM251700 14006KT P6SM SCT050 BKN250
     FM260100 11004KT P6SM SCT250=



000
FTUS44 KHUN 250520
TAFHSV
TAF
KHSV 250520Z 2506/2606 10005KT P6SM SCT150 BKN250
     FM251500 15007KT P6SM FEW050 SCT200
     FM260100 10004KT P6SM SCT250=



000
FTUS44 KHUN 242330
TAFHSV
TAF
KHSV 242330Z 2500/2524 06004KT P6SM SCT050 BKN250
     FM251500 12005KT P6SM FEW050 SCT200=



000
FTUS44 KHUN 242330
TAFMSL
TAF
KMSL 242330Z 2500/2524 VRB04KT P6SM SCT050 BKN250
      TEMPO 2511/2513 5SM BR
     FM251500 12004KT P6SM FEW050 SCT200
     FM251800 15006KT P6SM SCT050CB BKN250=



000
FTUS44 KHUN 242330
TAFMSL
TAF
KMSL 242330Z 2500/2524 VRB04KT P6SM SCT050 BKN250
      TEMPO 2511/2513 5SM BR
     FM251500 12004KT P6SM FEW050 SCT200
     FM251800 15006KT P6SM SCT050CB BKN250=



000
FTUS44 KHUN 242330
TAFHSV
TAF
KHSV 242330Z 2500/2524 06004KT P6SM SCT050 BKN250
     FM251500 12005KT P6SM FEW050 SCT200=



000
FTUS44 KHUN 241740
TAFMSL
TAF
KMSL 241740Z 2418/2518 VRB05KT P6SM FEW200
     FM250100 VRB03KT P6SM SCT120 SCT250
     FM251500 15005KT P6SM FEW050 SCT200=



000
FTUS44 KHUN 241740
TAFMSL
TAF
KMSL 241740Z 2418/2518 VRB05KT P6SM FEW200
     FM250100 VRB03KT P6SM SCT120 SCT250
     FM251500 15005KT P6SM FEW050 SCT200=



000
FTUS44 KHUN 241740
TAFHSV
TAF
KHSV 241740Z 2418/2518 01009KT P6SM FEW020 SCT150 BKN250
     FM250000 VRB03KT P6SM SCT090 SCT250
     FM251500 13005KT P6SM FEW050 SCT200=



000
FTUS44 KHUN 241740
TAFHSV
TAF
KHSV 241740Z 2418/2518 01009KT P6SM FEW020 SCT150 BKN250
     FM250000 VRB03KT P6SM SCT090 SCT250
     FM251500 13005KT P6SM FEW050 SCT200=



000
FTUS44 KHUN 241403 AAA
TAFHSV
TAF AMD
KHSV 241403Z 2414/2512 VRB05KT P6SM SCT007 BKN150
     FM241600 VRB05KT P6SM SCT040 SCT180
     FM241800 VRB05KT P6SM VCTS SCT030CB BKN090
     FM250000 VRB03KT P6SM SCT090 SCT250=



000
FTUS44 KHUN 241403 AAA
TAFHSV
TAF AMD
KHSV 241403Z 2414/2512 VRB05KT P6SM SCT007 BKN150
     FM241600 VRB05KT P6SM SCT040 SCT180
     FM241800 VRB05KT P6SM VCTS SCT030CB BKN090
     FM250000 VRB03KT P6SM SCT090 SCT250=



    US Dept of Commerce
    National Oceanic and Atmospheric Administration
    National Weather Service
    1325 East West Highway
    Silver Spring, MD 20910
    Page Author: NWS Internet Services Team
Disclaimer
Information Quality
Credits
Glossary
Privacy Policy
Freedom of Information Act (FOIA)
About Us
Career Opportunities